Impacts METAR Board
IDs:

KSFB - Sanford Intl, FL, US

Updated at: 0600 UTC 22 Oct 2021
Potential Impact None Slight Moderate High
Time 21/18Z 21/19Z 21/20Z 21/21Z 21/22Z 21/23Z 22/00Z 22/01Z 22/02Z 22/03Z 22/04Z 22/05Z 22/06Z
Temp83 83 84 84 81 77 75 74 73 71 71 70 70
Dewpt62 63 63 64 65 66 66 66 67 66 67 67 67
Altim30.13 30.11 30.10 30.10 30.10 30.10 30.10 30.11 30.11 30.10 30.10 30.09 30.07
VIS10 10 10 10 10 10 10 10 10 10 10 10 10
CIG50 -- -- -- -- -- -- -- -- -- -- -- --
CoverBKNSCTSCTCLRCLRCLRCLRCLRCLRCLRCLRCLRCLR
FltCatVFRVFRVFRVFRVFRVFRVFRVFRVFRVFRVFRVFRVFR
WX--------------------------
WDir070130100909070000000
WSpd6 7 11 10 11 6 4 0 0 0 0 0 0
WGst-- -- 19 -- -- -- -- -- -- -- -- -- --
Raw hourly METARs
KSFB 211753Z VRB06KT 10SM BKN050 BKN060 28/17 A3013 RMK AO2 SLP202 T02830167 10306 20194 58020
KSFB 211853Z 07007KT 10SM SCT060 28/17 A3011 RMK AO2 SLP194 T02830172
KSFB 211953Z 13011G19KT 10SM FEW046 SCT060 29/17 A3010 RMK AO2 SLP191 T02890172
KSFB 212053Z 10010KT 10SM CLR 29/18 A3010 RMK AO2 SLP190 T02890178 56012
KSFB 212153Z 09011KT 10SM CLR 27/18 A3010 RMK AO2 SLP191 T02720183
KSFB 212253Z 09006KT 10SM CLR 25/19 A3010 RMK AO2 SLP191 T02500189
KSFB 212353Z 07004KT 10SM CLR 24/19 A3010 RMK AO2 SLP191 T02390189 10300 20239 51001
KSFB 220053Z 00000KT 10SM CLR 23/19 A3011 RMK AO2 SLP195 T02330189
KSFB 220153Z 00000KT 10SM CLR 23/19 A3011 RMK AO2 SLP194 T02280194
KSFB 220253Z 00000KT 10SM CLR 22/19 A3010 RMK AO2 SLP192 T02170189 50001
KSFB 220353Z AUTO 00000KT 10SM CLR 22/19 A3010 RMK AO2 SLP190 T02170194
KSFB 220453Z AUTO 00000KT 10SM CLR 21/19 A3009 RMK AO2 SLP188 T02110194 403060189
KSFB 220553Z AUTO 00000KT 10SM CLR 21/19 A3007 RMK AO2 SLP181 T02110194 10239 20211 58010



Page loaded:  06:29 UTC  |   11:29 PM Pacific  |   12:29 AM Mountain  |   01:29 AM Central  |   02:29 AM Eastern

 

ADVISORIES

FORECASTS

FORECASTS

OBSERVATIONS

USER TOOLS

ABOUT US